sensor_id;sensor_type;location;lat;lon;timestamp;pressure;altitude;pressure_sealevel;temperature;humidity
58056;BME280;53159;55.152;36.614;2022-08-20T00:00:44;100464.88;;;16.90;74.57
58056;BME280;53159;55.152;36.614;2022-08-20T00:03:17;100471.72;;;16.77;75.41
58056;BME280;53159;55.152;36.614;2022-08-20T00:05:48;100466.34;;;16.68;76.07
58056;BME280;53159;55.152;36.614;2022-08-20T00:08:20;100472.41;;;16.62;76.53
58056;BME280;53159;55.152;36.614;2022-08-20T00:10:48;100473.19;;;16.55;77.05
58056;BME280;53159;55.152;36.614;2022-08-20T00:13:21;100466.94;;;16.45;77.47
58056;BME280;53159;55.152;36.614;2022-08-20T00:15:48;100466.97;;;16.47;78.04
58056;BME280;53159;55.152;36.614;2022-08-20T00:18:15;100480.06;;;16.47;78.27
58056;BME280;53159;55.152;36.614;2022-08-20T00:20:45;100472.13;;;16.40;78.54
58056;BME280;53159;55.152;36.614;2022-08-20T00:23:12;100478.13;;;16.33;79.29
58056;BME280;53159;55.152;36.614;2022-08-20T00:25:41;100475.47;;;16.28;79.66
58056;BME280;53159;55.152;36.614;2022-08-20T00:28:08;100476.22;;;16.21;80.49
58056;BME280;53159;55.152;36.614;2022-08-20T00:30:35;100476.22;;;16.21;80.65
58056;BME280;53159;55.152;36.614;2022-08-20T00:33:10;100484.09;;;16.21;80.86
58056;BME280;53159;55.152;36.614;2022-08-20T00:35:42;100471.00;;;16.21;80.93
58056;BME280;53159;55.152;36.614;2022-08-20T00:38:09;100470.94;;;16.20;81.19
58056;BME280;53159;55.152;36.614;2022-08-20T00:40:42;100471.94;;;16.26;81.10
58056;BME280;53159;55.152;36.614;2022-08-20T00:43:34;100475.47;;;16.28;81.35
58056;BME280;53159;55.152;36.614;2022-08-20T00:46:05;100475.41;;;16.25;81.35
58056;BME280;53159;55.152;36.614;2022-08-20T00:48:36;100470.16;;;16.24;81.38
58056;BME280;53159;55.152;36.614;2022-08-20T00:51:09;100472.78;;;16.24;81.81
58056;BME280;53159;55.152;36.614;2022-08-20T00:53:39;100456.03;;;16.14;82.32
58056;BME280;53159;55.152;36.614;2022-08-20T00:56:07;100464.72;;;16.10;83.14
58056;BME280;53159;55.152;36.614;2022-08-20T00:58:37;100459.50;;;16.13;82.92
58056;BME280;53159;55.152;36.614;2022-08-20T01:01:06;100462.94;;;16.09;83.26
58056;BME280;53159;55.152;36.614;2022-08-20T01:03:34;100473.44;;;16.09;83.69
58056;BME280;53159;55.152;36.614;2022-08-20T01:06:01;100469.88;;;16.04;84.13
58056;BME280;53159;55.152;36.614;2022-08-20T01:08:28;100467.25;;;16.04;83.98
58056;BME280;53159;55.152;36.614;2022-08-20T01:10:56;100474.25;;;16.06;84.32
58056;BME280;53159;55.152;36.614;2022-08-20T01:13:34;100466.34;;;16.02;84.57
58056;BME280;53159;55.152;36.614;2022-08-20T01:16:14;100467.94;;;15.93;84.65
58056;BME280;53159;55.152;36.614;2022-08-20T01:18:44;100467.81;;;15.84;85.46
58056;BME280;53159;55.152;36.614;2022-08-20T01:21:15;100475.56;;;15.81;85.82
58056;BME280;53159;55.152;36.614;2022-08-20T01:24:20;100488.66;;;15.81;86.35
58056;BME280;53159;55.152;36.614;2022-08-20T01:26:55;100484.16;;;15.72;86.83
58056;BME280;53159;55.152;36.614;2022-08-20T01:29:24;100491.97;;;15.71;87.08
58056;BME280;53159;55.152;36.614;2022-08-20T01:31:54;100489.25;;;15.64;87.84
58056;BME280;53159;55.152;36.614;2022-08-20T01:34:26;100485.81;;;15.69;87.43
58056;BME280;53159;55.152;36.614;2022-08-20T01:36:55;100496.22;;;15.64;88.03
58056;BME280;53159;55.152;36.614;2022-08-20T01:39:29;100493.44;;;15.53;88.61
58056;BME280;53159;55.152;36.614;2022-08-20T01:42:13;100491.63;;;15.51;88.76
58056;BME280;53159;55.152;36.614;2022-08-20T01:44:46;100483.63;;;15.43;89.17
58056;BME280;53159;55.152;36.614;2022-08-20T01:47:18;100475.72;;;15.38;89.64
58056;BME280;53159;55.152;36.614;2022-08-20T01:49:50;100482.78;;;15.44;89.42
58056;BME280;53159;55.152;36.614;2022-08-20T01:52:39;100484.47;;;15.42;89.67
58056;BME280;53159;55.152;36.614;2022-08-20T01:55:09;100482.63;;;15.35;89.94
58056;BME280;53159;55.152;36.614;2022-08-20T01:57:37;100481.75;;;15.34;90.15
58056;BME280;53159;55.152;36.614;2022-08-20T02:00:09;100483.38;;;15.29;90.68
58056;BME280;53159;55.152;36.614;2022-08-20T02:02:39;100491.22;;;15.29;90.79
58056;BME280;53159;55.152;36.614;2022-08-20T02:05:06;100477.00;;;15.14;91.18
58056;BME280;53159;55.152;36.614;2022-08-20T02:07:33;100479.72;;;15.19;91.26
58056;BME280;53159;55.152;36.614;2022-08-20T02:10:00;100484.09;;;15.19;91.36
58056;BME280;53159;55.152;36.614;2022-08-20T02:12:27;100479.63;;;15.14;91.18
58056;BME280;53159;55.152;36.614;2022-08-20T02:14:54;100492.78;;;15.18;91.21
58056;BME280;53159;55.152;36.614;2022-08-20T02:17:24;100490.84;;;15.07;91.57
58056;BME280;53159;55.152;36.614;2022-08-20T02:19:57;100499.47;;;15.05;91.83
58056;BME280;53159;55.152;36.614;2022-08-20T02:22:31;100502.91;;;15.02;92.05
58056;BME280;53159;55.152;36.614;2022-08-20T02:25:01;100498.50;;;14.98;92.23
58056;BME280;53159;55.152;36.614;2022-08-20T02:27:30;100500.19;;;14.96;92.30
58056;BME280;53159;55.152;36.614;2022-08-20T02:30:11;100500.16;;;14.94;92.58
58056;BME280;53159;55.152;36.614;2022-08-20T02:32:40;100504.44;;;14.91;92.66
58056;BME280;53159;55.152;36.614;2022-08-20T02:35:09;100505.22;;;14.85;92.46
58056;BME280;53159;55.152;36.614;2022-08-20T02:37:41;100503.34;;;14.79;92.91
58056;BME280;53159;55.152;36.614;2022-08-20T02:40:11;100517.47;;;14.88;92.91
58056;BME280;53159;55.152;36.614;2022-08-20T02:42:39;100514.84;;;14.88;92.84
58056;BME280;53159;55.152;36.614;2022-08-20T02:45:13;100513.13;;;14.90;92.93
58056;BME280;53159;55.152;36.614;2022-08-20T02:47:41;100501.72;;;14.86;92.81
58056;BME280;53159;55.152;36.614;2022-08-20T02:50:15;100507.88;;;14.88;92.57
58056;BME280;53159;55.152;36.614;2022-08-20T02:52:43;100511.44;;;14.93;92.44
58056;BME280;53159;55.152;36.614;2022-08-20T02:55:12;100512.31;;;14.92;92.17
58056;BME280;53159;55.152;36.614;2022-08-20T02:57:41;100509.75;;;14.95;92.04
58056;BME280;53159;55.152;36.614;2022-08-20T03:00:17;100508.13;;;15.01;91.66
58056;BME280;53159;55.152;36.614;2022-08-20T03:02:46;100515.25;;;15.08;91.69
58056;BME280;53159;55.152;36.614;2022-08-20T03:05:14;100515.38;;;15.15;90.60
58056;BME280;53159;55.152;36.614;2022-08-20T03:07:47;100523.22;;;15.15;90.14
58056;BME280;53159;55.152;36.614;2022-08-20T03:10:15;100520.56;;;15.12;89.99
58056;BME280;53159;55.152;36.614;2022-08-20T03:12:43;100523.94;;;15.07;90.36
58056;BME280;53159;55.152;36.614;2022-08-20T03:15:10;100512.47;;;15.00;90.10
58056;BME280;53159;55.152;36.614;2022-08-20T03:17:37;100509.03;;;15.03;90.13
58056;BME280;53159;55.152;36.614;2022-08-20T03:20:07;100513.47;;;15.07;90.02
58056;BME280;53159;55.152;36.614;2022-08-20T03:22:34;100506.44;;;15.03;89.92
58056;BME280;53159;55.152;36.614;2022-08-20T03:25:02;100513.59;;;15.13;89.49
58056;BME280;53159;55.152;36.614;2022-08-20T03:27:29;100506.66;;;15.13;89.00
58056;BME280;53159;55.152;36.614;2022-08-20T03:29:57;100513.72;;;15.21;88.74
58056;BME280;53159;55.152;36.614;2022-08-20T03:32:24;100506.72;;;15.18;87.98
58056;BME280;53159;55.152;36.614;2022-08-20T03:34:51;100513.00;;;15.28;87.84
58056;BME280;53159;55.152;36.614;2022-08-20T03:37:18;100500.78;;;15.27;87.51
58056;BME280;53159;55.152;36.614;2022-08-20T03:39:44;100519.41;;;15.44;86.80
58056;BME280;53159;55.152;36.614;2022-08-20T03:42:12;100514.16;;;15.42;85.88
58056;BME280;53159;55.152;36.614;2022-08-20T03:44:40;100524.09;;;15.62;85.90
58056;BME280;53159;55.152;36.614;2022-08-20T03:47:07;100525.44;;;15.89;84.36
58056;BME280;53159;55.152;36.614;2022-08-20T03:49:35;100525.09;;;16.21;82.43
58056;BME280;53159;55.152;36.614;2022-08-20T03:52:03;100522.06;;;16.51;80.21
58056;BME280;53159;55.152;36.614;2022-08-20T03:54:30;100518.09;;;16.83;78.45
58056;BME280;53159;55.152;36.614;2022-08-20T03:56:58;100524.38;;;16.94;76.71
58056;BME280;53159;55.152;36.614;2022-08-20T03:59:25;100527.13;;;17.03;75.70
58056;BME280;53159;55.152;36.614;2022-08-20T04:01:53;100531.81;;;17.32;74.71
58056;BME280;53159;55.152;36.614;2022-08-20T04:04:20;100530.34;;;17.58;73.22
58056;BME280;53159;55.152;36.614;2022-08-20T04:06:47;100537.47;;;17.71;72.87
58056;BME280;53159;55.152;36.614;2022-08-20T04:09:14;100526.38;;;17.98;71.11
58056;BME280;53159;55.152;36.614;2022-08-20T04:11:41;100526.38;;;18.03;69.88
58056;BME280;53159;55.152;36.614;2022-08-20T04:14:09;100528.28;;;18.18;68.06
58056;BME280;53159;55.152;36.614;2022-08-20T04:16:37;100511.59;;;18.19;66.76
58056;BME280;53159;55.152;36.614;2022-08-20T04:19:07;100530.19;;;18.50;66.55
58056;BME280;53159;55.152;36.614;2022-08-20T04:21:34;100517.19;;;18.73;64.85
58056;BME280;53159;55.152;36.614;2022-08-20T04:24:04;100524.19;;;18.68;64.89
58056;BME280;53159;55.152;36.614;2022-08-20T04:26:50;100528.59;;;18.74;64.48
58056;BME280;53159;55.152;36.614;2022-08-20T04:29:17;100536.19;;;18.29;65.15
58056;BME280;53159;55.152;36.614;2022-08-20T04:31:45;100530.50;;;17.76;66.92
58056;BME280;53159;55.152;36.614;2022-08-20T04:34:11;100521.56;;;17.55;68.12
58056;BME280;53159;55.152;36.614;2022-08-20T04:36:38;100526.81;;;17.54;68.42
58056;BME280;53159;55.152;36.614;2022-08-20T04:39:05;100519.97;;;17.70;67.63
58056;BME280;53159;55.152;36.614;2022-08-20T04:41:32;100521.56;;;17.57;68.55
58056;BME280;53159;55.152;36.614;2022-08-20T04:43:59;100512.72;;;17.47;68.57
58056;BME280;53159;55.152;36.614;2022-08-20T04:46:26;100518.75;;;17.34;68.60
58056;BME280;53159;55.152;36.614;2022-08-20T04:48:55;100523.78;;;17.15;68.87
58056;BME280;53159;55.152;36.614;2022-08-20T04:51:23;100522.09;;;17.20;69.32
58056;BME280;53159;55.152;36.614;2022-08-20T04:53:52;100521.19;;;17.20;69.35
58056;BME280;53159;55.152;36.614;2022-08-20T04:56:25;100522.03;;;17.16;69.14
58056;BME280;53159;55.152;36.614;2022-08-20T04:58:55;100520.25;;;17.16;69.12
58056;BME280;53159;55.152;36.614;2022-08-20T05:01:23;100504.28;;;16.93;69.03
58056;BME280;53159;55.152;36.614;2022-08-20T05:03:52;100509.59;;;16.99;69.80
58056;BME280;53159;55.152;36.614;2022-08-20T05:06:38;100513.94;;;16.96;69.64
58056;BME280;53159;55.152;36.614;2022-08-20T05:09:06;100495.53;;;16.92;69.52
58056;BME280;53159;55.152;36.614;2022-08-20T05:11:34;100511.41;;;17.05;69.29
58056;BME280;53159;55.152;36.614;2022-08-20T05:14:01;100500.88;;;17.02;68.56
58056;BME280;53159;55.152;36.614;2022-08-20T05:16:28;100522.03;;;17.16;68.80
58056;BME280;53159;55.152;36.614;2022-08-20T05:18:55;100519.53;;;17.28;68.24
58056;BME280;53159;55.152;36.614;2022-08-20T05:21:22;100507.25;;;17.24;68.33
58056;BME280;53159;55.152;36.614;2022-08-20T05:23:48;100512.56;;;17.30;68.57
58056;BME280;53159;55.152;36.614;2022-08-20T05:26:16;100516.06;;;17.32;68.79
58056;BME280;53159;55.152;36.614;2022-08-20T05:28:45;100513.50;;;17.34;68.74
58056;BME280;53159;55.152;36.614;2022-08-20T05:31:11;100502.03;;;17.29;68.06
58056;BME280;53159;55.152;36.614;2022-08-20T05:33:38;100517.03;;;17.37;68.36
58056;BME280;53159;55.152;36.614;2022-08-20T05:36:06;100502.09;;;17.33;68.18
58056;BME280;53159;55.152;36.614;2022-08-20T05:38:34;100506.59;;;17.44;67.72
58056;BME280;53159;55.152;36.614;2022-08-20T05:41:03;100510.94;;;17.40;67.56
58056;BME280;53159;55.152;36.614;2022-08-20T05:43:31;100505.69;;;17.42;67.21
58056;BME280;53159;55.152;36.614;2022-08-20T05:46:00;100512.59;;;17.35;67.64
58056;BME280;53159;55.152;36.614;2022-08-20T05:48:47;100510.09;;;17.44;67.44
58056;BME280;53159;55.152;36.614;2022-08-20T05:51:14;100517.00;;;17.36;66.03
58056;BME280;53159;55.152;36.614;2022-08-20T05:53:41;100509.03;;;17.28;66.33
58056;BME280;53159;55.152;36.614;2022-08-20T05:56:09;100518.63;;;17.26;66.34
58056;BME280;53159;55.152;36.614;2022-08-20T05:58:38;100518.63;;;17.24;66.11
58056;BME280;53159;55.152;36.614;2022-08-20T06:01:05;100510.69;;;17.18;66.27
58056;BME280;53159;55.152;36.614;2022-08-20T06:03:32;100510.69;;;17.17;65.81
58056;BME280;53159;55.152;36.614;2022-08-20T06:06:18;100519.47;;;17.20;66.04
58056;BME280;53159;55.152;36.614;2022-08-20T06:08:46;100520.31;;;17.21;65.58
58056;BME280;53159;55.152;36.614;2022-08-20T06:11:13;100512.38;;;17.13;67.10
58056;BME280;53159;55.152;36.614;2022-08-20T06:13:40;100507.09;;;17.10;66.52
58056;BME280;53159;55.152;36.614;2022-08-20T06:16:06;100512.25;;;17.02;66.68
58056;BME280;53159;55.152;36.614;2022-08-20T06:18:33;100518.31;;;16.97;66.92
58056;BME280;53159;55.152;36.614;2022-08-20T06:20:59;100515.66;;;16.95;66.59
58056;BME280;53159;55.152;36.614;2022-08-20T06:23:27;100530.41;;;16.90;67.26
58056;BME280;53159;55.152;36.614;2022-08-20T06:25:55;100520.88;;;16.94;68.13
58056;BME280;53159;55.152;36.614;2022-08-20T06:28:21;100520.97;;;17.01;67.81
58056;BME280;53159;55.152;36.614;2022-08-20T06:30:50;100523.41;;;16.89;67.87
58056;BME280;53159;55.152;36.614;2022-08-20T06:33:16;100511.97;;;16.82;68.02
58056;BME280;53159;55.152;36.614;2022-08-20T06:35:44;100514.53;;;16.76;68.17
58056;BME280;53159;55.152;36.614;2022-08-20T06:38:12;100532.88;;;16.76;68.51
58056;BME280;53159;55.152;36.614;2022-08-20T06:40:40;100548.81;;;16.91;68.58
58056;BME280;53159;55.152;36.614;2022-08-20T06:43:06;100533.81;;;16.81;68.70
58056;BME280;53159;55.152;36.614;2022-08-20T06:45:36;100545.25;;;16.88;68.74
58056;BME280;53159;55.152;36.614;2022-08-20T06:48:11;100535.56;;;16.82;68.65
58056;BME280;53159;55.152;36.614;2022-08-20T06:50:42;100539.03;;;16.80;68.64
58056;BME280;53159;55.152;36.614;2022-08-20T06:53:12;100524.19;;;16.82;68.56
58056;BME280;53159;55.152;36.614;2022-08-20T06:55:42;100528.41;;;16.70;68.47
58056;BME280;53159;55.152;36.614;2022-08-20T06:58:12;100513.50;;;16.66;68.59
58056;BME280;53159;55.152;36.614;2022-08-20T07:00:40;100529.25;;;16.68;68.78
58056;BME280;53159;55.152;36.614;2022-08-20T07:03:09;100532.78;;;16.68;69.08
58056;BME280;53159;55.152;36.614;2022-08-20T07:05:38;100517.91;;;16.69;69.53
58056;BME280;53159;55.152;36.614;2022-08-20T07:08:09;100530.94;;;16.61;69.03
58056;BME280;53159;55.152;36.614;2022-08-20T07:10:38;100526.47;;;16.57;68.88
58056;BME280;53159;55.152;36.614;2022-08-20T07:13:05;100520.34;;;16.55;68.89
58056;BME280;53159;55.152;36.614;2022-08-20T07:15:33;100529.16;;;16.58;69.02
58056;BME280;53159;55.152;36.614;2022-08-20T07:18:02;100525.63;;;16.58;69.39
58056;BME280;53159;55.152;36.614;2022-08-20T07:20:32;100529.16;;;16.58;69.28
58056;BME280;53159;55.152;36.614;2022-08-20T07:23:00;100532.53;;;16.53;69.23
58056;BME280;53159;55.152;36.614;2022-08-20T07:25:28;100533.34;;;16.47;69.40
58056;BME280;53159;55.152;36.614;2022-08-20T07:28:03;100536.00;;;16.49;69.48
58056;BME280;53159;55.152;36.614;2022-08-20T07:30:32;100535.94;;;16.46;69.13
58056;BME280;53159;55.152;36.614;2022-08-20T07:33:19;100524.50;;;16.40;69.15
58056;BME280;53159;55.152;36.614;2022-08-20T07:35:46;100539.47;;;16.48;69.49
58056;BME280;53159;55.152;36.614;2022-08-20T07:38:21;100528.22;;;16.53;69.96
58056;BME280;53159;55.152;36.614;2022-08-20T07:41:05;100530.00;;;16.57;69.91
58056;BME280;53159;55.152;36.614;2022-08-20T07:43:32;100532.72;;;16.64;70.12
58056;BME280;53159;55.152;36.614;2022-08-20T07:46:01;100536.16;;;16.61;69.42
58056;BME280;53159;55.152;36.614;2022-08-20T07:48:33;100543.97;;;16.58;69.37
58056;BME280;53159;55.152;36.614;2022-08-20T07:51:02;100540.41;;;16.53;69.94
58056;BME280;53159;55.152;36.614;2022-08-20T07:53:32;100543.13;;;16.60;69.81
58056;BME280;53159;55.152;36.614;2022-08-20T07:56:10;100536.25;;;16.67;69.21
58056;BME280;53159;55.152;36.614;2022-08-20T07:58:41;100531.88;;;16.68;69.32
58056;BME280;53159;55.152;36.614;2022-08-20T08:01:08;100545.91;;;16.73;69.06
58056;BME280;53159;55.152;36.614;2022-08-20T08:03:37;100542.44;;;16.72;68.96
58056;BME280;53159;55.152;36.614;2022-08-20T08:06:05;100541.47;;;16.66;69.26
58056;BME280;53159;55.152;36.614;2022-08-20T08:08:33;100551.13;;;16.68;69.83
58056;BME280;53159;55.152;36.614;2022-08-20T08:11:06;100555.38;;;16.62;70.44
58056;BME280;53159;55.152;36.614;2022-08-20T08:13:37;100550.03;;;16.54;70.42
58056;BME280;53159;55.152;36.614;2022-08-20T08:16:06;100545.47;;;16.40;70.53
58056;BME280;53159;55.152;36.614;2022-08-20T08:18:44;100542.75;;;16.34;72.03
58056;BME280;53159;55.152;36.614;2022-08-20T08:21:12;100540.97;;;16.30;72.78
58056;BME280;53159;55.152;36.614;2022-08-20T08:23:39;100551.28;;;16.21;74.12
58056;BME280;53159;55.152;36.614;2022-08-20T08:26:11;100560.78;;;16.14;74.37
58056;BME280;53159;55.152;36.614;2022-08-20T08:28:39;100558.94;;;16.08;73.96
58056;BME280;53159;55.152;36.614;2022-08-20T08:31:07;100557.91;;;15.99;74.95
58056;BME280;53159;55.152;36.614;2022-08-20T08:33:35;100560.34;;;15.88;75.94
58056;BME280;53159;55.152;36.614;2022-08-20T08:36:05;100575.47;;;16.06;76.42
58056;BME280;53159;55.152;36.614;2022-08-20T08:38:37;100564.72;;;15.89;76.82
58056;BME280;53159;55.152;36.614;2022-08-20T08:41:28;100568.44;;;16.02;78.00
58056;BME280;53159;55.152;36.614;2022-08-20T08:44:09;100569.28;;;16.01;78.65
58056;BME280;53159;55.152;36.614;2022-08-20T08:46:42;100572.81;;;16.03;77.92
58056;BME280;53159;55.152;36.614;2022-08-20T08:49:16;100569.50;;;16.13;78.18
58056;BME280;53159;55.152;36.614;2022-08-20T08:51:46;100547.50;;;16.03;77.22
58056;BME280;53159;55.152;36.614;2022-08-20T08:54:21;100542.47;;;16.16;76.48
58056;BME280;53159;55.152;36.614;2022-08-20T08:56:51;100565.31;;;16.26;76.33
58056;BME280;53159;55.152;36.614;2022-08-20T08:59:20;100565.38;;;16.29;75.91
58056;BME280;53159;55.152;36.614;2022-08-20T09:01:53;100556.59;;;16.27;75.94
58056;BME280;53159;55.152;36.614;2022-08-20T09:04:21;100566.22;;;16.26;75.78
58056;BME280;53159;55.152;36.614;2022-08-20T09:06:50;100546.88;;;16.20;76.66
58056;BME280;53159;55.152;36.614;2022-08-20T09:09:30;100535.44;;;16.11;76.46
58056;BME280;53159;55.152;36.614;2022-08-20T09:12:10;100537.22;;;16.16;78.40
58056;BME280;53159;55.152;36.614;2022-08-20T09:14:39;100550.19;;;16.06;78.89
58056;BME280;53159;55.152;36.614;2022-08-20T09:17:07;100551.72;;;15.95;80.23
58056;BME280;53159;55.152;36.614;2022-08-20T09:19:33;100565.41;;;15.80;81.22
58056;BME280;53159;55.152;36.614;2022-08-20T09:22:11;100562.66;;;15.72;84.39
58056;BME280;53159;55.152;36.614;2022-08-20T09:24:40;100575.59;;;15.64;85.32
58056;BME280;53159;55.152;36.614;2022-08-20T09:27:08;100564.94;;;15.55;87.60
58056;BME280;53159;55.152;36.614;2022-08-20T09:29:37;100564.69;;;15.41;87.58
58056;BME280;53159;55.152;36.614;2022-08-20T09:34:44;100566.84;;;15.18;90.77
58056;BME280;53159;55.152;36.614;2022-08-20T09:37:13;100559.00;;;15.18;93.11
58056;BME280;53159;55.152;36.614;2022-08-20T09:39:41;100555.44;;;15.14;93.57
58056;BME280;53159;55.152;36.614;2022-08-20T09:42:11;100555.25;;;15.04;93.90
58056;BME280;53159;55.152;36.614;2022-08-20T09:44:38;100546.09;;;14.83;94.53
58056;BME280;53159;55.152;36.614;2022-08-20T09:47:05;100546.94;;;14.82;96.33
58056;BME280;53159;55.152;36.614;2022-08-20T09:49:32;100541.56;;;14.74;96.70
58056;BME280;53159;55.152;36.614;2022-08-20T09:51:59;100539.66;;;14.67;97.17
58056;BME280;53159;55.152;36.614;2022-08-20T09:54:27;100521.03;;;14.53;96.44
58056;BME280;53159;55.152;36.614;2022-08-20T09:57:01;100522.94;;;14.60;97.67
58056;BME280;53159;55.152;36.614;2022-08-20T09:59:29;100525.22;;;14.46;97.23
58056;BME280;53159;55.152;36.614;2022-08-20T10:02:02;100517.75;;;14.62;97.13
58056;BME280;53159;55.152;36.614;2022-08-20T10:04:30;100520.13;;;14.52;96.61
58056;BME280;53159;55.152;36.614;2022-08-20T10:06:56;100521.91;;;14.54;96.93
58056;BME280;53159;55.152;36.614;2022-08-20T10:09:23;100510.63;;;14.55;96.39
58056;BME280;53159;55.152;36.614;2022-08-20T10:11:50;100502.88;;;14.58;96.25
58056;BME280;53159;55.152;36.614;2022-08-20T10:14:16;100498.69;;;14.66;95.35
58056;BME280;53159;55.152;36.614;2022-08-20T10:16:44;100497.41;;;14.87;94.19
58056;BME280;53159;55.152;36.614;2022-08-20T10:19:10;100498.38;;;14.92;92.74
58056;BME280;53159;55.152;36.614;2022-08-20T10:21:38;100491.84;;;15.14;91.80
58056;BME280;53159;55.152;36.614;2022-08-20T10:24:05;100492.06;;;15.26;90.26
58056;BME280;53159;55.152;36.614;2022-08-20T10:26:32;100488.00;;;15.42;89.48
58056;BME280;53159;55.152;36.614;2022-08-20T10:28:59;100491.81;;;15.61;88.31
58056;BME280;53159;55.152;36.614;2022-08-20T10:31:26;100490.34;;;15.77;88.47
58056;BME280;53159;55.152;36.614;2022-08-20T10:33:53;100477.47;;;15.88;86.43
58056;BME280;53159;55.152;36.614;2022-08-20T10:36:21;100502.97;;;16.00;85.30
58056;BME280;53159;55.152;36.614;2022-08-20T10:38:49;100518.06;;;16.17;85.67
58056;BME280;53159;55.152;36.614;2022-08-20T10:41:16;100523.38;;;16.23;86.28
58056;BME280;53159;55.152;36.614;2022-08-20T10:43:43;100521.59;;;16.19;86.21
58056;BME280;53159;55.152;36.614;2022-08-20T10:46:12;100508.41;;;16.14;86.93
58056;BME280;53159;55.152;36.614;2022-08-20T10:48:40;100513.75;;;16.22;86.81
58056;BME280;53159;55.152;36.614;2022-08-20T10:51:06;100505.88;;;16.20;86.71
58056;BME280;53159;55.152;36.614;2022-08-20T10:53:34;100510.38;;;16.27;87.08
58056;BME280;53159;55.152;36.614;2022-08-20T10:56:04;100493.66;;;16.21;87.51
58056;BME280;53159;55.152;36.614;2022-08-20T10:58:32;100496.38;;;16.27;87.56
58056;BME280;53159;55.152;36.614;2022-08-20T11:00:59;100489.28;;;16.20;86.08
58056;BME280;53159;55.152;36.614;2022-08-20T11:03:26;100476.19;;;16.20;86.45
58056;BME280;53159;55.152;36.614;2022-08-20T11:05:52;100475.38;;;16.22;86.41
58056;BME280;53159;55.152;36.614;2022-08-20T11:08:19;100480.78;;;16.35;84.68
58056;BME280;53159;55.152;36.614;2022-08-20T11:10:45;100456.41;;;16.40;85.18
58056;BME280;53159;55.152;36.614;2022-08-20T11:13:12;100439.81;;;16.41;82.83
58056;BME280;53159;55.152;36.614;2022-08-20T11:15:41;100455.81;;;16.63;83.08
58056;BME280;53159;55.152;36.614;2022-08-20T11:18:09;100449.00;;;16.76;82.40
58056;BME280;53159;55.152;36.614;2022-08-20T11:20:36;100455.22;;;16.87;79.73
58056;BME280;53159;55.152;36.614;2022-08-20T11:23:03;100470.31;;;17.04;81.10
58056;BME280;53159;55.152;36.614;2022-08-20T11:25:31;100486.16;;;17.13;78.79
58056;BME280;53159;55.152;36.614;2022-08-20T11:27:59;100485.34;;;17.19;78.41
58056;BME280;53159;55.152;36.614;2022-08-20T11:30:31;100466.03;;;17.11;76.96
58056;BME280;53159;55.152;36.614;2022-08-20T11:33:01;100468.72;;;17.17;75.91
58056;BME280;53159;55.152;36.614;2022-08-20T11:35:32;100477.56;;;17.30;76.92
58056;BME280;53159;55.152;36.614;2022-08-20T11:37:59;100458.41;;;17.35;76.89
58056;BME280;53159;55.152;36.614;2022-08-20T11:40:27;100470.63;;;17.33;75.85
58056;BME280;53159;55.152;36.614;2022-08-20T11:42:54;100475.97;;;17.43;75.48
58056;BME280;53159;55.152;36.614;2022-08-20T11:45:22;100463.72;;;17.45;77.30
58056;BME280;53159;55.152;36.614;2022-08-20T11:47:49;100464.63;;;17.45;76.37
58056;BME280;53159;55.152;36.614;2022-08-20T11:50:19;100468.09;;;17.43;76.44
58056;BME280;53159;55.152;36.614;2022-08-20T11:52:47;100449.75;;;17.46;76.21
58056;BME280;53159;55.152;36.614;2022-08-20T11:55:15;100428.78;;;17.50;76.02
58056;BME280;53159;55.152;36.614;2022-08-20T11:57:45;100438.53;;;17.64;75.63
58056;BME280;53159;55.152;36.614;2022-08-20T12:00:17;100423.63;;;17.61;74.61
58056;BME280;53159;55.152;36.614;2022-08-20T12:02:46;100420.25;;;17.75;74.01
58056;BME280;53159;55.152;36.614;2022-08-20T12:05:18;100427.28;;;17.82;72.92
58056;BME280;53159;55.152;36.614;2022-08-20T12:07:45;100423.69;;;17.67;72.38
58056;BME280;53159;55.152;36.614;2022-08-20T12:10:13;100421.16;;;17.80;74.05
58056;BME280;53159;55.152;36.614;2022-08-20T12:12:40;100416.78;;;17.82;74.00
58056;BME280;53159;55.152;36.614;2022-08-20T12:15:08;100420.31;;;17.85;73.44
58056;BME280;53159;55.152;36.614;2022-08-20T12:17:35;100405.44;;;17.86;72.94
58056;BME280;53159;55.152;36.614;2022-08-20T12:20:08;100406.34;;;17.91;72.97
58056;BME280;53159;55.152;36.614;2022-08-20T12:22:36;100404.66;;;17.98;73.01
58056;BME280;53159;55.152;36.614;2022-08-20T12:25:05;100397.63;;;17.95;71.70
58056;BME280;53159;55.152;36.614;2022-08-20T12:27:35;100397.69;;;18.00;71.71
58056;BME280;53159;55.152;36.614;2022-08-20T12:30:07;100397.69;;;18.01;70.00
58056;BME280;53159;55.152;36.614;2022-08-20T12:32:35;100415.28;;;18.12;70.99
58056;BME280;53159;55.152;36.614;2022-08-20T12:35:04;100410.88;;;18.14;70.53
58056;BME280;53159;55.152;36.614;2022-08-20T12:37:32;100418.81;;;18.23;68.98
58056;BME280;53159;55.152;36.614;2022-08-20T12:40:02;100418.00;;;18.35;68.30
58056;BME280;53159;55.152;36.614;2022-08-20T12:42:30;100409.22;;;18.30;67.91
58056;BME280;53159;55.152;36.614;2022-08-20T12:44:59;100416.25;;;18.40;67.95
58056;BME280;53159;55.152;36.614;2022-08-20T12:47:29;100421.47;;;18.34;67.13
58056;BME280;53159;55.152;36.614;2022-08-20T12:49:59;100411.84;;;18.31;66.47
58056;BME280;53159;55.152;36.614;2022-08-20T12:52:28;100419.75;;;18.33;63.98
58056;BME280;53159;55.152;36.614;2022-08-20T12:54:57;100402.22;;;18.35;64.59